Skip Navigation LinksHome page > Weather > Current weather Skip Navigation Links

Current Weather

Indira Gandhi Intl Apt, New Delhi, India

For information only: do not use for flight planning or navigation.
Latest weather
Observation time Sunday, August 2, 2015 1:00 AM IST
Local time Sunday, August 2, 2015 1:45 AM IST
Flight conditions Instrument Meteorological Conditions
Winds
Wind speed calm
Visibility 1.2 mi.
Present weather mist
Sky condition
Ceiling 10,000 ft. broken clouds
Cloud layer scattered clouds 3,000 ft.
Cloud layer few clouds with cumulonimbus 4,000 ft.
Cloud layer broken clouds 10,000 ft.
Temperature 79°F
Dewpoint 75°F
Altimeter 29.68 in.Hg
Derived measurements
Relative humidity 89%
Heat index 79°F
Density altitude 2714 ft.
Remarks
No significant changes expected in the next two hours.
METAR VIDP 011930Z 00000KT 2000 BR SCT030 FEW040CB BKN100 26/24 Q1005 NOSIG

Settings

Location code

InnerDrive.Weather 4.0.5567.0 Release CLR 4.0.30319.34014
Copyright ©2015 Inner Drive Technology. All rights reserved. Portions Copyright ©1986-2015 David Braverman.

Find weather

Site navigation


Skip Navigation Links

Place info

Page info

PayPal - The safer, easier way to pay online!

Return home.

Copyright ©2015 Inner Drive Technology. Purveyors of fine, hand-crafted computer software. Page printed 2015-08-01T20:15:03 UTC.